aviador You're here:

KMAI Decoded Metar

MARIANNA in FL, USA
Report Time2018-06-22 02:53:00
UTC Time2018-06-22 03:09:01
Flight Rules vfr VFR
Wind210° at 07 kt
W.Decomp.*RWY 18: 5.9 kt HW 3.7 kt RCW
RWY 26: 4.7 kt HW 5.2 kt LCW
W.Rank210° ranks 7
Current wind is above 210° avg. (6.4)
Visibility9999 m
Phenomena:N/A
Clouds:N/A
Expected CloudBase > 2,000 ft AGL from Temp-Dew spread
CeilingNone
Temp27°C (ISA +12)
Dew Point22°C (74% RH)
Heat Index29.2°C
QNH1013 hPa
Density Alt1,860 ft
Elevation105 ft
Report Wrong Elevation
Raw Report
METAR KMAI 220253Z AUTO 21007KT 10SM CLR 27/22 A2990 RMK AO2 SLP121
T02720222 50007=

Extra information for KMAI:More info

Metar Taf Metar & Taf Last 4 Metars F.Rules Stats Wind Profile Meteogram Temp Stats Airport Information Weather charts Add Link Nearby VenuesMetar ALERT Operation Metar Decoded Social comments

AIRNAV info for KMAI